Vulcan, Canada
Current Conditions -  °F | °C
As of 3:00 PM on Wednesday 28 Jan 2015 (Local Time) from CYQL Reporting Station
Clear Clear  
Wind Chill: 43°   Ceiling: Unl
Heat Index: 43°   Visibility: 15mi
Dew Point: 30°   Wind: 3mph
Humidity: 61%   Direction: 30°NNE
Pressure: 30.28"   Gusts: NA
Location:  50.4°N, 113.25°W
Report Text: CYQL 282200Z 03003KT 15SM SKC 06/M01 A3028 RMK SLP288
Loading
Personal Weather Stations






























Interactive Weather Map New forecast layout! Learn more

10-Day Weather Forecast

Advertisements
Track Severe Weather on mobile